Time,TemperatureF,DewpointF,PressureIn,WindDirection,WindDirectionDegrees,WindSpeedMPH,WindSpeedGustMPH,Humidity,HourlyPrecipIn,Conditions,Clouds,dailyrainin,SoftwareType,DateUTC
2013-05-04 00:05:00,42.3,38.0,30.32,North,1,0.0,0.0,86,0.00,,,0.00,vanprod,2013-05-04 04:05:00,
2013-05-04 00:15:00,42.2,39.0,30.31,North,1,0.0,0.0,87,0.00,,,0.00,vanprod,2013-05-04 04:15:00,
2013-05-04 00:25:00,42.2,39.0,30.31,North,1,0.0,0.0,88,0.00,,,0.00,vanprod,2013-05-04 04:25:00,
2013-05-04 00:35:00,42.1,39.0,30.31,North,1,0.0,0.0,88,0.00,,,0.00,vanprod,2013-05-04 04:35:00,
2013-05-04 00:45:00,42.1,39.0,30.30,North,1,0.0,0.0,88,0.00,,,0.00,vanprod,2013-05-04 04:45:00,
2013-05-04 00:55:00,41.9,39.0,30.30,North,3,0.0,0.0,89,0.00,,,0.00,vanprod,2013-05-04 04:55:00,
2013-05-04 01:05:00,41.8,39.0,30.30,North,3,0.0,0.0,89,0.00,,,0.00,vanprod,2013-05-04 05:05:00,
2013-05-04 01:15:00,41.8,39.0,30.30,North,1,0.0,0.0,90,0.00,,,0.00,vanprod,2013-05-04 05:15:00,
2013-05-04 01:25:00,41.6,39.0,30.30,North,1,0.0,0.0,90,0.00,,,0.00,vanprod,2013-05-04 05:25:00,
2013-05-04 01:35:00,41.6,39.0,30.29,North,0,0.0,0.0,90,0.00,,,0.00,vanprod,2013-05-04 05:35:00,
2013-05-04 01:45:00,41.3,39.0,30.29,North,3,0.0,0.0,90,0.00,,,0.00,vanprod,2013-05-04 05:45:00,
2013-05-04 01:55:00,41.2,38.0,30.29,North,3,0.0,0.0,90,0.00,,,0.00,vanprod,2013-05-04 05:55:00,
2013-05-04 02:05:00,41.1,38.0,30.29,North,1,0.0,0.0,90,0.00,,,0.00,vanprod,2013-05-04 06:05:00,
2013-05-04 02:15:00,40.8,38.0,30.28,North,4,0.0,0.0,91,0.00,,,0.00,vanprod,2013-05-04 06:15:00,
2013-05-04 02:25:00,40.6,38.0,30.28,North,3,0.0,0.0,91,0.00,,,0.00,vanprod,2013-05-04 06:25:00,
2013-05-04 02:35:00,40.5,38.0,30.28,North,1,0.0,0.0,91,0.00,,,0.00,vanprod,2013-05-04 06:35:00,
2013-05-04 02:45:00,40.3,38.0,30.28,North,3,0.0,0.0,91,0.00,,,0.00,vanprod,2013-05-04 06:45:00,
2013-05-04 02:55:00,40.2,38.0,30.28,North,1,0.0,0.0,91,0.00,,,0.00,vanprod,2013-05-04 06:55:00,
2013-05-04 03:05:00,39.8,38.0,30.28,North,3,0.0,0.0,92,0.00,,,0.00,vanprod,2013-05-04 07:05:00,
2013-05-04 03:15:00,39.5,37.0,30.27,North,1,0.0,0.0,91,0.00,,,0.00,vanprod,2013-05-04 07:15:00,
2013-05-04 03:25:00,39.2,37.0,30.27,North,3,0.0,0.0,92,0.00,,,0.00,vanprod,2013-05-04 07:25:00,
2013-05-04 03:35:00,39.1,37.0,30.27,North,4,0.0,0.0,92,0.00,,,0.00,vanprod,2013-05-04 07:35:00,
2013-05-04 03:45:00,38.8,37.0,30.28,North,1,0.0,0.0,92,0.00,,,0.00,vanprod,2013-05-04 07:45:00,
2013-05-04 03:55:00,38.5,36.0,30.28,North,3,0.0,0.0,92,0.00,,,0.00,vanprod,2013-05-04 07:55:00,
2013-05-04 04:05:00,38.2,36.0,30.28,North,3,0.0,2.0,92,0.00,,,0.00,vanprod,2013-05-04 08:05:00,
2013-05-04 04:15:00,38.0,36.0,30.28,North,3,0.0,0.0,92,0.00,,,0.00,vanprod,2013-05-04 08:15:00,
2013-05-04 04:25:00,38.0,36.0,30.28,North,3,0.0,0.0,92,0.00,,,0.00,vanprod,2013-05-04 08:25:00,
2013-05-04 04:35:00,37.9,36.0,30.28,North,3,0.0,0.0,93,0.00,,,0.00,vanprod,2013-05-04 08:35:00,
2013-05-04 04:45:00,37.9,36.0,30.28,North,1,0.0,0.0,93,0.00,,,0.00,vanprod,2013-05-04 08:45:00,
2013-05-04 04:55:00,37.8,36.0,30.28,North,1,0.0,0.0,93,0.00,,,0.00,vanprod,2013-05-04 08:55:00,
2013-05-04 05:05:00,37.8,36.0,30.28,North,3,0.0,0.0,93,0.00,,,0.00,vanprod,2013-05-04 09:05:00,
2013-05-04 05:15:00,37.8,36.0,30.28,North,1,0.0,0.0,93,0.00,,,0.00,vanprod,2013-05-04 09:15:00,
2013-05-04 05:25:00,37.8,36.0,30.28,North,3,0.0,0.0,93,0.00,,,0.00,vanprod,2013-05-04 09:25:00,
2013-05-04 05:35:00,37.6,36.0,30.28,North,1,0.0,0.0,93,0.00,,,0.00,vanprod,2013-05-04 09:35:00,
2013-05-04 05:45:00,37.6,36.0,30.29,North,3,0.0,0.0,93,0.00,,,0.00,vanprod,2013-05-04 09:45:00,
2013-05-04 05:55:00,37.6,36.0,30.29,North,6,0.0,0.0,93,0.00,,,0.00,vanprod,2013-05-04 09:55:00,
2013-05-04 06:05:00,37.6,36.0,30.30,North,3,0.0,0.0,93,0.00,,,0.00,vanprod,2013-05-04 10:05:00,
2013-05-04 06:15:00,37.8,36.0,30.30,North,0,0.0,0.0,94,0.00,,,0.00,vanprod,2013-05-04 10:15:00,
2013-05-04 06:25:00,37.9,36.0,30.30,North,1,0.0,0.0,94,0.00,,,0.00,vanprod,2013-05-04 10:25:00,
2013-05-04 06:35:00,38.2,37.0,30.30,North,3,0.0,0.0,94,0.00,,,0.00,vanprod,2013-05-04 10:35:00,
2013-05-04 06:45:00,38.3,37.0,30.30,North,1,0.0,0.0,94,0.00,,,0.00,vanprod,2013-05-04 10:45:00,
2013-05-04 06:55:00,38.6,37.0,30.30,North,1,0.0,0.0,94,0.00,,,0.00,vanprod,2013-05-04 10:55:00,
2013-05-04 07:05:00,39.1,38.0,30.31,North,3,0.0,0.0,95,0.00,,,0.00,vanprod,2013-05-04 11:05:00,
2013-05-04 07:15:00,39.9,39.0,30.31,North,1,0.0,0.0,96,0.00,,,0.00,vanprod,2013-05-04 11:15:00,
2013-05-04 07:25:00,40.9,40.0,30.31,North,1,0.0,0.0,96,0.00,,,0.00,vanprod,2013-05-04 11:25:00,
2013-05-04 07:35:00,42.8,42.0,30.31,North,4,1.0,2.0,96,0.00,,,0.00,vanprod,2013-05-04 11:35:00,
2013-05-04 07:45:00,44.3,43.0,30.31,North,1,1.0,0.0,96,0.00,,,0.00,vanprod,2013-05-04 11:45:00,
2013-05-04 07:55:00,46.0,45.0,30.31,North,7,1.0,0.0,95,0.00,,,0.00,vanprod,2013-05-04 11:55:00,
2013-05-04 08:05:00,47.0,44.0,30.31,North,0,2.0,0.0,90,0.00,,,0.00,vanprod,2013-05-04 12:05:00,
2013-05-04 08:35:00,49.5,44.0,30.31,North,7,2.0,6.0,80,0.00,,,0.00,vanprod,2013-05-04 12:35:00,
2013-05-04 08:45:00,50.1,44.0,30.31,North,8,3.0,3.0,80,0.00,,,0.00,vanprod,2013-05-04 12:45:00,
2013-05-04 08:55:00,50.7,44.0,30.31,North,6,2.0,0.0,79,0.00,,,0.00,vanprod,2013-05-04 12:55:00,
2013-05-04 09:05:00,51.6,45.0,30.31,North,1,2.0,2.0,77,0.00,,,0.00,vanprod,2013-05-04 13:05:00,
2013-05-04 09:15:00,51.9,44.0,30.32,North,1,3.0,7.0,74,0.00,,,0.00,vanprod,2013-05-04 13:15:00,
2013-05-04 09:25:00,52.0,44.0,30.32,North,3,4.0,4.0,73,0.00,,,0.00,vanprod,2013-05-04 13:25:00,
2013-05-04 09:35:00,52.5,44.0,30.32,North,3,5.0,5.0,73,0.00,,,0.00,vanprod,2013-05-04 13:35:00,
2013-05-04 09:45:00,52.3,44.0,30.32,North,0,3.0,3.0,72,0.00,,,0.00,vanprod,2013-05-04 13:45:00,
2013-05-04 09:55:00,52.6,44.0,30.32,North,1,4.0,5.0,72,0.00,,,0.00,vanprod,2013-05-04 13:55:00,
2013-05-04 10:05:00,53.5,43.0,30.32,North,0,2.0,2.0,68,0.00,,,0.00,vanprod,2013-05-04 14:05:00,
2013-05-04 10:15:00,53.8,44.0,30.32,North,0,3.0,0.0,70,0.00,,,0.00,vanprod,2013-05-04 14:15:00,
2013-05-04 10:25:00,54.5,43.0,30.32,North,1,1.0,3.0,65,0.00,,,0.00,vanprod,2013-05-04 14:25:00,
2013-05-04 10:35:00,54.8,43.0,30.31,North,4,2.0,2.0,64,0.00,,,0.00,vanprod,2013-05-04 14:35:00,
2013-05-04 10:45:00,55.1,43.0,30.31,North,4,3.0,4.0,64,0.00,,,0.00,vanprod,2013-05-04 14:45:00,
2013-05-04 10:55:00,55.3,42.0,30.31,North,3,4.0,5.0,61,0.00,,,0.00,vanprod,2013-05-04 14:55:00,
2013-05-04 11:05:00,55.4,42.0,30.31,North,1,3.0,3.0,61,0.00,,,0.00,vanprod,2013-05-04 15:05:00,
2013-05-04 11:15:00,55.7,43.0,30.30,North,3,3.0,6.0,61,0.00,,,0.00,vanprod,2013-05-04 15:15:00,
2013-05-04 11:25:00,55.7,41.0,30.30,North,1,4.0,6.0,58,0.00,,,0.00,vanprod,2013-05-04 15:25:00,
2013-05-04 11:35:00,56.0,42.0,30.30,North,1,4.0,7.0,58,0.00,,,0.00,vanprod,2013-05-04 15:35:00,
2013-05-04 11:45:00,56.3,41.0,30.30,North,3,4.0,0.0,57,0.00,,,0.00,vanprod,2013-05-04 15:45:00,
2013-05-04 11:55:00,56.7,41.0,30.30,North,3,2.0,7.0,55,0.00,,,0.00,vanprod,2013-05-04 15:55:00,
2013-05-04 12:05:00,56.9,41.0,30.30,North,3,4.0,5.0,55,0.00,,,0.00,vanprod,2013-05-04 16:05:00,
2013-05-04 12:15:00,57.0,41.0,30.30,North,1,4.0,7.0,54,0.00,,,0.00,vanprod,2013-05-04 16:15:00,
2013-05-04 12:25:00,57.0,40.0,30.30,North,7,5.0,5.0,53,0.00,,,0.00,vanprod,2013-05-04 16:25:00,
2013-05-04 12:35:00,57.2,40.0,30.30,North,1,3.0,8.0,52,0.00,,,0.00,vanprod,2013-05-04 16:35:00,
2013-05-04 12:45:00,57.0,41.0,30.30,North,8,4.0,0.0,54,0.00,,,0.00,vanprod,2013-05-04 16:45:00,
2013-05-04 12:55:00,57.3,39.0,30.30,North,1,4.0,0.0,50,0.00,,,0.00,vanprod,2013-05-04 16:55:00,
2013-05-04 13:05:00,57.6,40.0,30.29,North,4,5.0,9.0,52,0.00,,,0.00,vanprod,2013-05-04 17:05:00,
2013-05-04 13:15:00,57.8,40.0,30.29,North,1,4.0,4.0,51,0.00,,,0.00,vanprod,2013-05-04 17:15:00,
2013-05-04 13:25:00,57.6,39.0,30.29,North,1,3.0,3.0,49,0.00,,,0.00,vanprod,2013-05-04 17:25:00,
2013-05-04 13:35:00,58.1,39.0,30.29,North,1,5.0,5.0,49,0.00,,,0.00,vanprod,2013-05-04 17:35:00,
2013-05-04 13:45:00,58.0,39.0,30.28,North,1,4.0,4.0,49,0.00,,,0.00,vanprod,2013-05-04 17:45:00,
2013-05-04 13:55:00,58.1,38.0,30.28,North,3,3.0,3.0,48,0.00,,,0.00,vanprod,2013-05-04 17:55:00,
2013-05-04 14:05:00,58.3,39.0,30.28,North,3,3.0,3.0,48,0.00,,,0.00,vanprod,2013-05-04 18:05:00,
2013-05-04 14:15:00,58.7,40.0,30.28,North,0,3.0,3.0,49,0.00,,,0.00,vanprod,2013-05-04 18:15:00,
2013-05-04 14:25:00,59.2,39.0,30.28,North,3,3.0,3.0,47,0.00,,,0.00,vanprod,2013-05-04 18:25:00,
2013-05-04 14:35:00,58.7,41.0,30.27,North,1,5.0,7.0,51,0.00,,,0.00,vanprod,2013-05-04 18:35:00,
2013-05-04 14:45:00,58.1,38.0,30.27,North,3,3.0,5.0,48,0.00,,,0.00,vanprod,2013-05-04 18:45:00,
2013-05-04 14:55:00,57.5,41.0,30.27,North,3,3.0,10.0,53,0.00,,,0.00,vanprod,2013-05-04 18:55:00,
2013-05-04 15:05:00,57.3,40.0,30.27,North,3,5.0,5.0,52,0.00,,,0.00,vanprod,2013-05-04 19:05:00,
2013-05-04 15:15:00,56.6,38.0,30.27,North,3,3.0,3.0,50,0.00,,,0.00,vanprod,2013-05-04 19:15:00,
2013-05-04 15:25:00,56.2,39.0,30.27,North,1,2.0,2.0,52,0.00,,,0.00,vanprod,2013-05-04 19:25:00,
2013-05-04 15:35:00,55.9,38.0,30.26,North,1,3.0,3.0,51,0.00,,,0.00,vanprod,2013-05-04 19:35:00,
2013-05-04 15:45:00,55.7,38.0,30.26,North,3,3.0,0.0,52,0.00,,,0.00,vanprod,2013-05-04 19:45:00,
2013-05-04 15:55:00,56.2,38.0,30.26,North,3,2.0,2.0,50,0.00,,,0.00,vanprod,2013-05-04 19:55:00,
2013-05-04 16:05:00,56.3,39.0,30.25,North,3,1.0,0.0,52,0.00,,,0.00,vanprod,2013-05-04 20:05:00,
2013-05-04 16:15:00,56.0,37.0,30.25,North,1,5.0,5.0,48,0.00,,,0.00,vanprod,2013-05-04 20:15:00,
2013-05-04 16:25:00,55.6,35.0,30.25,North,1,2.0,2.0,46,0.00,,,0.00,vanprod,2013-05-04 20:25:00,
2013-05-04 16:35:00,55.4,36.0,30.25,North,4,3.0,3.0,48,0.00,,,0.00,vanprod,2013-05-04 20:35:00,
2013-05-04 16:45:00,55.1,35.0,30.25,North,1,3.0,3.0,47,0.00,,,0.00,vanprod,2013-05-04 20:45:00,
2013-05-04 16:55:00,55.0,34.0,30.25,North,0,4.0,7.0,45,0.00,,,0.00,vanprod,2013-05-04 20:55:00,
2013-05-04 17:05:00,54.4,35.0,30.25,North,1,5.0,5.0,47,0.00,,,0.00,vanprod,2013-05-04 21:05:00,
2013-05-04 17:15:00,53.9,36.0,30.26,North,3,3.0,3.0,51,0.00,,,0.00,vanprod,2013-05-04 21:15:00,
2013-05-04 17:25:00,53.5,37.0,30.26,North,4,2.0,3.0,53,0.00,,,0.00,vanprod,2013-05-04 21:25:00,
2013-05-04 17:35:00,52.8,37.0,30.26,North,4,2.0,2.0,54,0.00,,,0.00,vanprod,2013-05-04 21:35:00,
2013-05-04 17:45:00,52.3,37.0,30.26,North,4,2.0,3.0,55,0.00,,,0.00,vanprod,2013-05-04 21:45:00,
2013-05-04 17:55:00,51.4,36.0,30.26,North,4,1.0,1.0,56,0.00,,,0.00,vanprod,2013-05-04 21:55:00,
2013-05-04 18:05:00,51.0,36.0,30.26,North,3,2.0,2.0,57,0.00,,,0.00,vanprod,2013-05-04 22:05:00,
2013-05-04 18:15:00,50.5,36.0,30.26,North,4,2.0,2.0,58,0.00,,,0.00,vanprod,2013-05-04 22:15:00,
2013-05-04 18:25:00,50.2,37.0,30.26,North,3,2.0,5.0,60,0.00,,,0.00,vanprod,2013-05-04 22:25:00,
2013-05-04 18:35:00,50.1,37.0,30.26,North,0,0.0,0.0,60,0.00,,,0.00,vanprod,2013-05-04 22:35:00,
2013-05-04 18:45:00,49.8,37.0,30.26,North,1,0.0,0.0,62,0.00,,,0.00,vanprod,2013-05-04 22:45:00,
2013-05-04 18:55:00,49.4,38.0,30.26,North,1,0.0,0.0,64,0.00,,,0.00,vanprod,2013-05-04 22:55:00,
2013-05-04 19:05:00,48.9,38.0,30.26,North,3,1.0,1.0,65,0.00,,,0.00,vanprod,2013-05-04 23:05:00,
2013-05-04 19:15:00,48.3,38.0,30.27,North,4,1.0,0.0,67,0.00,,,0.00,vanprod,2013-05-04 23:15:00,
2013-05-04 19:25:00,47.7,38.0,30.27,North,1,0.0,0.0,69,0.00,,,0.00,vanprod,2013-05-04 23:25:00,
2013-05-04 19:35:00,47.3,38.0,30.27,North,4,0.0,0.0,70,0.00,,,0.00,vanprod,2013-05-04 23:35:00,
2013-05-04 19:45:00,46.8,38.0,30.27,North,3,0.0,0.0,71,0.00,,,0.00,vanprod,2013-05-04 23:45:00,
2013-05-04 19:55:00,46.5,38.0,30.27,North,3,0.0,0.0,72,0.00,,,0.00,vanprod,2013-05-04 23:55:00,
2013-05-04 20:05:00,46.1,38.0,30.27,North,3,0.0,0.0,73,0.00,,,0.00,vanprod,2013-05-05 00:05:00,
2013-05-04 20:15:00,45.7,38.0,30.27,North,1,0.0,0.0,75,0.00,,,0.00,vanprod,2013-05-05 00:15:00,
2013-05-04 20:25:00,45.2,38.0,30.27,North,3,0.0,0.0,76,0.00,,,0.00,vanprod,2013-05-05 00:25:00,
2013-05-04 20:35:00,44.8,38.0,30.28,North,3,0.0,0.0,77,0.00,,,0.00,vanprod,2013-05-05 00:35:00,
2013-05-04 20:45:00,44.2,38.0,30.28,North,1,0.0,0.0,79,0.00,,,0.00,vanprod,2013-05-05 00:45:00,
2013-05-04 20:55:00,43.6,38.0,30.28,North,3,0.0,0.0,80,0.00,,,0.00,vanprod,2013-05-05 00:55:00,
2013-05-04 21:05:00,43.2,38.0,30.28,North,3,0.0,0.0,81,0.00,,,0.00,vanprod,2013-05-05 01:05:00,
2013-05-04 21:15:00,42.8,37.0,30.29,North,3,0.0,0.0,81,0.00,,,0.00,vanprod,2013-05-05 01:15:00,
2013-05-04 21:25:00,42.3,37.0,30.29,North,6,0.0,0.0,82,0.00,,,0.00,vanprod,2013-05-05 01:25:00,
2013-05-04 21:35:00,41.9,37.0,30.29,North,1,0.0,0.0,83,0.00,,,0.00,vanprod,2013-05-05 01:35:00,
2013-05-04 21:45:00,41.6,37.0,30.29,North,3,0.0,0.0,84,0.00,,,0.00,vanprod,2013-05-05 01:45:00,
2013-05-04 21:55:00,41.2,37.0,30.29,North,1,0.0,0.0,85,0.00,,,0.00,vanprod,2013-05-05 01:55:00,
2013-05-04 22:05:00,41.1,37.0,30.29,North,3,0.0,0.0,85,0.00,,,0.00,vanprod,2013-05-05 02:05:00,
2013-05-04 22:15:00,40.8,37.0,30.29,North,0,0.0,0.0,85,0.00,,,0.00,vanprod,2013-05-05 02:15:00,
2013-05-04 22:25:00,40.3,37.0,30.29,North,3,0.0,0.0,87,0.00,,,0.00,vanprod,2013-05-05 02:25:00,
2013-05-04 22:35:00,40.1,37.0,30.29,North,3,0.0,0.0,87,0.00,,,0.00,vanprod,2013-05-05 02:35:00,
2013-05-04 22:45:00,39.9,37.0,30.29,North,3,0.0,0.0,88,0.00,,,0.00,vanprod,2013-05-05 02:45:00,
2013-05-04 22:55:00,39.6,36.0,30.29,North,3,0.0,0.0,88,0.00,,,0.00,vanprod,2013-05-05 02:55:00,
2013-05-04 23:05:00,39.5,36.0,30.29,North,3,0.0,0.0,89,0.00,,,0.00,vanprod,2013-05-05 03:05:00,
2013-05-04 23:15:00,39.2,36.0,30.28,North,3,0.0,0.0,89,0.00,,,0.00,vanprod,2013-05-05 03:15:00,
2013-05-04 23:25:00,39.1,36.0,30.28,North,1,0.0,0.0,89,0.00,,,0.00,vanprod,2013-05-05 03:25:00,
2013-05-04 23:35:00,38.8,36.0,30.28,North,1,0.0,0.0,90,0.00,,,0.00,vanprod,2013-05-05 03:35:00,
2013-05-04 23:45:00,38.6,36.0,30.28,North,3,0.0,0.0,90,0.00,,,0.00,vanprod,2013-05-05 03:45:00,
2013-05-04 23:55:00,38.5,36.0,30.28,North,3,0.0,0.0,90,0.00,,,0.00,vanprod,2013-05-05 03:55:00,